sensor_id;sensor_type;location;lat;lon;timestamp;P1;durP1;ratioP1;P2;durP2;ratioP2
26690;SDS011;14307;51.718;8.938;2022-10-16T00:00:48;7.88;;;7.05;;
26690;SDS011;14307;51.718;8.938;2022-10-16T00:03:14;11.57;;;7.40;;
26690;SDS011;14307;51.718;8.938;2022-10-16T00:05:41;9.18;;;7.70;;
26690;SDS011;14307;51.718;8.938;2022-10-16T00:08:10;12.57;;;7.18;;
26690;SDS011;14307;51.718;8.938;2022-10-16T00:10:38;9.73;;;7.13;;
26690;SDS011;14307;51.718;8.938;2022-10-16T00:13:05;7.88;;;7.18;;
26690;SDS011;14307;51.718;8.938;2022-10-16T00:15:34;8.40;;;7.53;;
26690;SDS011;14307;51.718;8.938;2022-10-16T00:18:06;13.40;;;7.93;;
26690;SDS011;14307;51.718;8.938;2022-10-16T00:20:33;10.10;;;7.82;;
26690;SDS011;14307;51.718;8.938;2022-10-16T00:23:00;8.60;;;7.65;;
26690;SDS011;14307;51.718;8.938;2022-10-16T00:25:27;8.68;;;7.47;;
26690;SDS011;14307;51.718;8.938;2022-10-16T00:27:54;8.05;;;7.25;;
26690;SDS011;14307;51.718;8.938;2022-10-16T00:30:21;14.07;;;7.88;;
26690;SDS011;14307;51.718;8.938;2022-10-16T00:32:47;12.60;;;9.05;;
26690;SDS011;14307;51.718;8.938;2022-10-16T00:35:14;11.77;;;8.93;;
26690;SDS011;14307;51.718;8.938;2022-10-16T00:37:41;15.07;;;9.20;;
26690;SDS011;14307;51.718;8.938;2022-10-16T00:40:08;12.30;;;10.45;;
26690;SDS011;14307;51.718;8.938;2022-10-16T00:42:35;14.50;;;10.90;;
26690;SDS011;14307;51.718;8.938;2022-10-16T00:45:02;15.38;;;11.60;;
26690;SDS011;14307;51.718;8.938;2022-10-16T00:52:37;20.50;;;12.00;;
26690;SDS011;14307;51.718;8.938;2022-10-16T00:55:08;18.30;;;12.57;;
26690;SDS011;14307;51.718;8.938;2022-10-16T00:57:36;18.33;;;12.82;;
26690;SDS011;14307;51.718;8.938;2022-10-16T01:00:04;19.05;;;12.07;;
26690;SDS011;14307;51.718;8.938;2022-10-16T01:02:33;19.55;;;14.30;;
26690;SDS011;14307;51.718;8.938;2022-10-16T01:05:00;25.23;;;15.45;;
26690;SDS011;14307;51.718;8.938;2022-10-16T01:07:43;21.27;;;15.20;;
26690;SDS011;14307;51.718;8.938;2022-10-16T01:12:54;23.08;;;15.02;;
26690;SDS011;14307;51.718;8.938;2022-10-16T01:20:44;21.75;;;15.55;;
26690;SDS011;14307;51.718;8.938;2022-10-16T01:28:39;25.52;;;17.35;;
26690;SDS011;14307;51.718;8.938;2022-10-16T01:31:12;25.20;;;17.90;;
26690;SDS011;14307;51.718;8.938;2022-10-16T01:33:47;31.92;;;18.83;;
26690;SDS011;14307;51.718;8.938;2022-10-16T01:36:24;27.52;;;17.55;;
26690;SDS011;14307;51.718;8.938;2022-10-16T01:38:55;29.73;;;18.00;;
26690;SDS011;14307;51.718;8.938;2022-10-16T01:41:29;29.88;;;19.85;;
26690;SDS011;14307;51.718;8.938;2022-10-16T01:44:07;28.00;;;17.63;;
26690;SDS011;14307;51.718;8.938;2022-10-16T01:46:37;31.77;;;18.17;;
26690;SDS011;14307;51.718;8.938;2022-10-16T01:49:05;40.65;;;20.52;;
26690;SDS011;14307;51.718;8.938;2022-10-16T01:51:35;38.03;;;20.05;;
26690;SDS011;14307;51.718;8.938;2022-10-16T01:54:03;38.38;;;20.02;;
26690;SDS011;14307;51.718;8.938;2022-10-16T01:56:33;39.17;;;19.02;;
26690;SDS011;14307;51.718;8.938;2022-10-16T01:59:03;36.17;;;18.63;;
26690;SDS011;14307;51.718;8.938;2022-10-16T02:01:33;36.88;;;19.25;;
26690;SDS011;14307;51.718;8.938;2022-10-16T02:04:11;33.35;;;20.02;;
26690;SDS011;14307;51.718;8.938;2022-10-16T02:06:42;38.33;;;18.75;;
26690;SDS011;14307;51.718;8.938;2022-10-16T02:09:12;34.25;;;19.17;;
26690;SDS011;14307;51.718;8.938;2022-10-16T02:11:38;36.97;;;19.35;;
26690;SDS011;14307;51.718;8.938;2022-10-16T02:14:05;37.95;;;18.02;;
26690;SDS011;14307;51.718;8.938;2022-10-16T02:16:40;34.08;;;19.98;;
26690;SDS011;14307;51.718;8.938;2022-10-16T02:19:10;37.35;;;17.98;;
26690;SDS011;14307;51.718;8.938;2022-10-16T02:21:48;32.38;;;17.50;;
26690;SDS011;14307;51.718;8.938;2022-10-16T02:24:42;28.17;;;17.35;;
26690;SDS011;14307;51.718;8.938;2022-10-16T02:27:26;23.92;;;16.98;;
26690;SDS011;14307;51.718;8.938;2022-10-16T02:30:03;28.35;;;18.02;;
26690;SDS011;14307;51.718;8.938;2022-10-16T02:32:36;26.70;;;17.33;;
26690;SDS011;14307;51.718;8.938;2022-10-16T02:35:05;22.70;;;15.45;;
26690;SDS011;14307;51.718;8.938;2022-10-16T02:37:36;34.13;;;18.15;;
26690;SDS011;14307;51.718;8.938;2022-10-16T02:40:05;25.92;;;16.73;;
26690;SDS011;14307;51.718;8.938;2022-10-16T02:42:34;24.50;;;14.80;;
26690;SDS011;14307;51.718;8.938;2022-10-16T02:45:03;28.70;;;14.90;;
26690;SDS011;14307;51.718;8.938;2022-10-16T02:47:31;30.42;;;17.42;;
26690;SDS011;14307;51.718;8.938;2022-10-16T02:49:58;28.85;;;15.43;;
26690;SDS011;14307;51.718;8.938;2022-10-16T02:52:25;25.90;;;17.05;;
26690;SDS011;14307;51.718;8.938;2022-10-16T02:54:52;21.60;;;14.35;;
26690;SDS011;14307;51.718;8.938;2022-10-16T02:57:19;20.42;;;14.93;;
26690;SDS011;14307;51.718;8.938;2022-10-16T02:59:46;20.40;;;13.73;;
26690;SDS011;14307;51.718;8.938;2022-10-16T03:02:13;21.25;;;14.10;;
26690;SDS011;14307;51.718;8.938;2022-10-16T03:04:40;23.20;;;14.70;;
26690;SDS011;14307;51.718;8.938;2022-10-16T03:07:07;22.42;;;15.68;;
26690;SDS011;14307;51.718;8.938;2022-10-16T03:09:33;25.45;;;15.48;;
26690;SDS011;14307;51.718;8.938;2022-10-16T03:12:00;19.75;;;13.73;;
26690;SDS011;14307;51.718;8.938;2022-10-16T03:14:27;15.77;;;12.75;;
26690;SDS011;14307;51.718;8.938;2022-10-16T03:16:58;19.13;;;13.07;;
26690;SDS011;14307;51.718;8.938;2022-10-16T03:19:25;17.23;;;12.23;;
26690;SDS011;14307;51.718;8.938;2022-10-16T03:21:52;18.63;;;12.85;;
26690;SDS011;14307;51.718;8.938;2022-10-16T03:24:19;20.60;;;11.60;;
26690;SDS011;14307;51.718;8.938;2022-10-16T03:26:45;15.75;;;10.40;;
26690;SDS011;14307;51.718;8.938;2022-10-16T03:29:12;13.73;;;10.07;;
26690;SDS011;14307;51.718;8.938;2022-10-16T03:31:39;15.80;;;9.98;;
26690;SDS011;14307;51.718;8.938;2022-10-16T03:34:05;16.50;;;10.15;;
26690;SDS011;14307;51.718;8.938;2022-10-16T03:36:32;16.88;;;10.25;;
26690;SDS011;14307;51.718;8.938;2022-10-16T03:38:59;15.63;;;9.32;;
26690;SDS011;14307;51.718;8.938;2022-10-16T03:41:26;16.10;;;9.55;;
26690;SDS011;14307;51.718;8.938;2022-10-16T03:43:52;14.30;;;9.18;;
26690;SDS011;14307;51.718;8.938;2022-10-16T03:46:19;11.73;;;9.65;;
26690;SDS011;14307;51.718;8.938;2022-10-16T03:48:46;10.55;;;8.57;;
26690;SDS011;14307;51.718;8.938;2022-10-16T03:51:12;13.05;;;9.02;;
26690;SDS011;14307;51.718;8.938;2022-10-16T03:53:39;11.02;;;8.60;;
26690;SDS011;14307;51.718;8.938;2022-10-16T03:56:06;10.15;;;7.28;;
26690;SDS011;14307;51.718;8.938;2022-10-16T03:58:33;10.75;;;8.73;;
26690;SDS011;14307;51.718;8.938;2022-10-16T04:01:00;11.70;;;8.90;;
26690;SDS011;14307;51.718;8.938;2022-10-16T04:03:27;12.23;;;9.55;;
26690;SDS011;14307;51.718;8.938;2022-10-16T04:05:53;11.35;;;10.13;;
26690;SDS011;14307;51.718;8.938;2022-10-16T04:08:20;11.55;;;9.48;;
26690;SDS011;14307;51.718;8.938;2022-10-16T04:10:47;14.82;;;9.80;;
26690;SDS011;14307;51.718;8.938;2022-10-16T04:13:14;15.90;;;9.48;;
26690;SDS011;14307;51.718;8.938;2022-10-16T04:15:41;11.55;;;9.63;;
26690;SDS011;14307;51.718;8.938;2022-10-16T04:18:08;10.93;;;9.15;;
26690;SDS011;14307;51.718;8.938;2022-10-16T04:20:35;11.07;;;7.78;;
26690;SDS011;14307;51.718;8.938;2022-10-16T04:23:02;11.43;;;8.30;;
26690;SDS011;14307;51.718;8.938;2022-10-16T04:25:29;9.57;;;7.95;;
26690;SDS011;14307;51.718;8.938;2022-10-16T04:27:56;9.38;;;7.65;;
26690;SDS011;14307;51.718;8.938;2022-10-16T04:30:23;12.73;;;7.40;;
26690;SDS011;14307;51.718;8.938;2022-10-16T04:32:51;16.67;;;9.13;;
26690;SDS011;14307;51.718;8.938;2022-10-16T04:35:19;13.02;;;10.25;;
26690;SDS011;14307;51.718;8.938;2022-10-16T04:37:47;10.05;;;8.80;;
26690;SDS011;14307;51.718;8.938;2022-10-16T04:40:14;11.75;;;7.15;;
26690;SDS011;14307;51.718;8.938;2022-10-16T04:42:40;9.85;;;7.07;;
26690;SDS011;14307;51.718;8.938;2022-10-16T04:45:07;11.55;;;8.30;;
26690;SDS011;14307;51.718;8.938;2022-10-16T04:47:39;11.77;;;8.50;;
26690;SDS011;14307;51.718;8.938;2022-10-16T04:50:06;9.82;;;8.93;;
26690;SDS011;14307;51.718;8.938;2022-10-16T04:52:34;9.70;;;8.73;;
26690;SDS011;14307;51.718;8.938;2022-10-16T04:55:06;10.18;;;9.20;;
26690;SDS011;14307;51.718;8.938;2022-10-16T04:57:33;12.13;;;8.90;;
26690;SDS011;14307;51.718;8.938;2022-10-16T04:59:59;10.55;;;8.57;;
26690;SDS011;14307;51.718;8.938;2022-10-16T05:02:27;8.73;;;7.88;;
26690;SDS011;14307;51.718;8.938;2022-10-16T05:04:53;11.98;;;8.65;;
26690;SDS011;14307;51.718;8.938;2022-10-16T05:07:20;9.07;;;8.27;;
26690;SDS011;14307;51.718;8.938;2022-10-16T05:09:46;9.90;;;8.95;;
26690;SDS011;14307;51.718;8.938;2022-10-16T05:12:13;10.38;;;8.98;;
26690;SDS011;14307;51.718;8.938;2022-10-16T05:14:40;10.60;;;9.00;;
26690;SDS011;14307;51.718;8.938;2022-10-16T05:17:07;11.05;;;8.90;;
26690;SDS011;14307;51.718;8.938;2022-10-16T05:19:33;9.60;;;8.70;;
26690;SDS011;14307;51.718;8.938;2022-10-16T05:22:00;11.75;;;8.38;;
26690;SDS011;14307;51.718;8.938;2022-10-16T05:24:27;11.13;;;8.50;;
26690;SDS011;14307;51.718;8.938;2022-10-16T05:26:54;9.07;;;8.13;;
26690;SDS011;14307;51.718;8.938;2022-10-16T05:29:21;8.25;;;7.47;;
26690;SDS011;14307;51.718;8.938;2022-10-16T05:31:51;11.45;;;7.10;;
26690;SDS011;14307;51.718;8.938;2022-10-16T05:34:19;8.68;;;6.60;;
26690;SDS011;14307;51.718;8.938;2022-10-16T05:36:46;7.22;;;5.75;;
26690;SDS011;14307;51.718;8.938;2022-10-16T05:39:14;5.75;;;5.13;;
26690;SDS011;14307;51.718;8.938;2022-10-16T05:41:42;7.28;;;5.68;;
26690;SDS011;14307;51.718;8.938;2022-10-16T05:44:09;6.47;;;5.03;;
26690;SDS011;14307;51.718;8.938;2022-10-16T05:46:36;5.32;;;4.75;;
26690;SDS011;14307;51.718;8.938;2022-10-16T05:49:03;5.90;;;4.55;;
26690;SDS011;14307;51.718;8.938;2022-10-16T05:51:30;8.45;;;4.97;;
26690;SDS011;14307;51.718;8.938;2022-10-16T05:53:56;6.03;;;5.53;;
26690;SDS011;14307;51.718;8.938;2022-10-16T05:56:23;6.25;;;5.57;;
26690;SDS011;14307;51.718;8.938;2022-10-16T05:58:50;7.70;;;7.00;;
26690;SDS011;14307;51.718;8.938;2022-10-16T06:01:17;7.68;;;6.88;;
26690;SDS011;14307;51.718;8.938;2022-10-16T06:03:44;14.27;;;6.93;;
26690;SDS011;14307;51.718;8.938;2022-10-16T06:06:15;11.93;;;6.43;;
26690;SDS011;14307;51.718;8.938;2022-10-16T06:08:43;6.72;;;5.60;;
26690;SDS011;14307;51.718;8.938;2022-10-16T06:11:13;8.45;;;6.60;;
26690;SDS011;14307;51.718;8.938;2022-10-16T06:13:41;7.20;;;6.07;;
26690;SDS011;14307;51.718;8.938;2022-10-16T06:16:09;6.30;;;5.70;;
26690;SDS011;14307;51.718;8.938;2022-10-16T06:18:36;11.73;;;7.32;;
26690;SDS011;14307;51.718;8.938;2022-10-16T06:21:16;7.53;;;6.82;;
26690;SDS011;14307;51.718;8.938;2022-10-16T06:23:44;6.95;;;6.32;;
26690;SDS011;14307;51.718;8.938;2022-10-16T06:26:15;11.43;;;7.32;;
26690;SDS011;14307;51.718;8.938;2022-10-16T06:28:43;8.90;;;8.00;;
26690;SDS011;14307;51.718;8.938;2022-10-16T06:31:10;10.82;;;8.07;;
26690;SDS011;14307;51.718;8.938;2022-10-16T06:33:38;8.70;;;7.72;;
26690;SDS011;14307;51.718;8.938;2022-10-16T06:36:10;7.68;;;7.00;;
26690;SDS011;14307;51.718;8.938;2022-10-16T06:38:41;8.80;;;7.97;;
26690;SDS011;14307;51.718;8.938;2022-10-16T06:41:09;7.85;;;7.15;;
26690;SDS011;14307;51.718;8.938;2022-10-16T06:43:38;9.73;;;7.10;;
26690;SDS011;14307;51.718;8.938;2022-10-16T06:46:06;9.05;;;7.45;;
26690;SDS011;14307;51.718;8.938;2022-10-16T06:48:39;7.38;;;6.68;;
26690;SDS011;14307;51.718;8.938;2022-10-16T06:53:40;7.82;;;6.68;;
26690;SDS011;14307;51.718;8.938;2022-10-16T06:56:27;8.73;;;6.90;;
26690;SDS011;14307;51.718;8.938;2022-10-16T06:58:56;9.30;;;6.95;;
26690;SDS011;14307;51.718;8.938;2022-10-16T07:01:24;9.15;;;6.35;;
26690;SDS011;14307;51.718;8.938;2022-10-16T07:03:51;7.47;;;6.80;;
26690;SDS011;14307;51.718;8.938;2022-10-16T07:06:19;10.10;;;7.38;;
26690;SDS011;14307;51.718;8.938;2022-10-16T07:08:47;11.15;;;7.35;;
26690;SDS011;14307;51.718;8.938;2022-10-16T07:11:15;8.00;;;6.47;;
26690;SDS011;14307;51.718;8.938;2022-10-16T07:13:44;6.22;;;5.72;;
26690;SDS011;14307;51.718;8.938;2022-10-16T07:16:20;8.43;;;7.50;;
26690;SDS011;14307;51.718;8.938;2022-10-16T07:18:48;9.48;;;8.63;;
26690;SDS011;14307;51.718;8.938;2022-10-16T07:21:21;8.80;;;7.63;;
26690;SDS011;14307;51.718;8.938;2022-10-16T07:23:52;9.05;;;8.05;;
26690;SDS011;14307;51.718;8.938;2022-10-16T07:26:19;9.63;;;8.32;;
26690;SDS011;14307;51.718;8.938;2022-10-16T07:28:46;7.57;;;6.97;;
26690;SDS011;14307;51.718;8.938;2022-10-16T07:31:13;8.98;;;6.63;;
26690;SDS011;14307;51.718;8.938;2022-10-16T07:33:41;7.18;;;6.68;;
26690;SDS011;14307;51.718;8.938;2022-10-16T07:36:11;7.75;;;7.22;;
26690;SDS011;14307;51.718;8.938;2022-10-16T07:38:42;7.72;;;7.30;;
26690;SDS011;14307;51.718;8.938;2022-10-16T07:41:10;8.32;;;7.72;;
26690;SDS011;14307;51.718;8.938;2022-10-16T07:43:38;9.60;;;8.90;;
26690;SDS011;14307;51.718;8.938;2022-10-16T07:46:05;10.02;;;9.38;;
26690;SDS011;14307;51.718;8.938;2022-10-16T07:48:33;9.68;;;9.18;;
26690;SDS011;14307;51.718;8.938;2022-10-16T07:51:01;10.30;;;9.70;;
26690;SDS011;14307;51.718;8.938;2022-10-16T07:53:29;11.32;;;10.63;;
26690;SDS011;14307;51.718;8.938;2022-10-16T07:56:00;13.40;;;12.43;;
26690;SDS011;14307;51.718;8.938;2022-10-16T07:58:29;12.57;;;11.90;;
26690;SDS011;14307;51.718;8.938;2022-10-16T08:00:57;12.70;;;12.10;;
26690;SDS011;14307;51.718;8.938;2022-10-16T08:03:24;13.30;;;12.60;;
26690;SDS011;14307;51.718;8.938;2022-10-16T08:05:51;14.65;;;13.80;;
26690;SDS011;14307;51.718;8.938;2022-10-16T08:08:18;15.00;;;14.25;;
26690;SDS011;14307;51.718;8.938;2022-10-16T08:10:45;15.40;;;14.65;;
26690;SDS011;14307;51.718;8.938;2022-10-16T08:13:12;17.08;;;16.27;;
26690;SDS011;14307;51.718;8.938;2022-10-16T08:15:42;16.40;;;15.60;;
26690;SDS011;14307;51.718;8.938;2022-10-16T08:18:09;16.48;;;15.50;;
26690;SDS011;14307;51.718;8.938;2022-10-16T08:20:37;15.57;;;14.70;;
26690;SDS011;14307;51.718;8.938;2022-10-16T08:23:04;16.30;;;15.32;;
26690;SDS011;14307;51.718;8.938;2022-10-16T08:25:31;15.85;;;15.05;;
26690;SDS011;14307;51.718;8.938;2022-10-16T08:28:00;16.67;;;15.88;;
26690;SDS011;14307;51.718;8.938;2022-10-16T08:30:28;17.25;;;16.35;;
26690;SDS011;14307;51.718;8.938;2022-10-16T08:32:55;17.48;;;16.52;;
26690;SDS011;14307;51.718;8.938;2022-10-16T08:35:22;17.23;;;16.20;;
26690;SDS011;14307;51.718;8.938;2022-10-16T08:37:48;16.88;;;15.93;;
26690;SDS011;14307;51.718;8.938;2022-10-16T08:40:25;18.08;;;17.08;;
26690;SDS011;14307;51.718;8.938;2022-10-16T08:50:57;17.83;;;16.92;;
26690;SDS011;14307;51.718;8.938;2022-10-16T08:53:26;18.58;;;17.60;;
26690;SDS011;14307;51.718;8.938;2022-10-16T08:55:57;18.40;;;17.48;;
26690;SDS011;14307;51.718;8.938;2022-10-16T08:58:28;18.08;;;17.27;;
26690;SDS011;14307;51.718;8.938;2022-10-16T09:00:57;19.40;;;18.20;;
26690;SDS011;14307;51.718;8.938;2022-10-16T09:12:17;18.73;;;17.83;;
26690;SDS011;14307;51.718;8.938;2022-10-16T09:17:30;19.98;;;18.88;;
26690;SDS011;14307;51.718;8.938;2022-10-16T09:20:11;19.95;;;18.95;;
26690;SDS011;14307;51.718;8.938;2022-10-16T09:25:39;21.73;;;20.52;;
26690;SDS011;14307;51.718;8.938;2022-10-16T09:28:09;21.48;;;20.23;;
26690;SDS011;14307;51.718;8.938;2022-10-16T09:30:36;21.55;;;20.40;;
26690;SDS011;14307;51.718;8.938;2022-10-16T09:33:05;19.70;;;18.52;;
26690;SDS011;14307;51.718;8.938;2022-10-16T09:35:44;20.75;;;19.60;;
26690;SDS011;14307;51.718;8.938;2022-10-16T09:41:00;21.63;;;20.52;;
26690;SDS011;14307;51.718;8.938;2022-10-16T09:43:38;21.75;;;20.75;;
26690;SDS011;14307;51.718;8.938;2022-10-16T09:46:27;21.30;;;20.00;;
26690;SDS011;14307;51.718;8.938;2022-10-16T09:48:56;19.58;;;18.67;;
26690;SDS011;14307;51.718;8.938;2022-10-16T09:51:28;19.95;;;18.70;;
26690;SDS011;14307;51.718;8.938;2022-10-16T09:54:11;18.95;;;17.95;;
26690;SDS011;14307;51.718;8.938;2022-10-16T09:56:42;19.73;;;18.73;;
26690;SDS011;14307;51.718;8.938;2022-10-16T09:59:12;19.30;;;18.27;;
26690;SDS011;14307;51.718;8.938;2022-10-16T10:01:46;19.80;;;18.90;;
26690;SDS011;14307;51.718;8.938;2022-10-16T10:04:17;20.20;;;19.20;;
26690;SDS011;14307;51.718;8.938;2022-10-16T10:06:49;20.30;;;19.25;;
26690;SDS011;14307;51.718;8.938;2022-10-16T10:09:22;20.13;;;19.23;;
26690;SDS011;14307;51.718;8.938;2022-10-16T10:14:23;21.42;;;20.25;;
26690;SDS011;14307;51.718;8.938;2022-10-16T10:17:02;21.38;;;20.15;;
26690;SDS011;14307;51.718;8.938;2022-10-16T10:22:17;22.25;;;21.17;;
26690;SDS011;14307;51.718;8.938;2022-10-16T10:24:54;21.67;;;20.13;;
26690;SDS011;14307;51.718;8.938;2022-10-16T10:27:43;20.92;;;19.83;;
26690;SDS011;14307;51.718;8.938;2022-10-16T10:30:27;19.48;;;18.58;;
26690;SDS011;14307;51.718;8.938;2022-10-16T10:52:38;18.55;;;17.60;;
26690;SDS011;14307;51.718;8.938;2022-10-16T11:07:20;20.23;;;18.98;;
26690;SDS011;14307;51.718;8.938;2022-10-16T11:09:54;19.50;;;18.45;;
26690;SDS011;14307;51.718;8.938;2022-10-16T11:12:29;17.08;;;16.27;;
26690;SDS011;14307;51.718;8.938;2022-10-16T11:20:32;17.88;;;16.88;;
26690;SDS011;14307;51.718;8.938;2022-10-16T11:23:14;18.25;;;17.35;;
26690;SDS011;14307;51.718;8.938;2022-10-16T11:25:47;19.35;;;18.13;;
26690;SDS011;14307;51.718;8.938;2022-10-16T11:28:19;19.25;;;18.25;;
26690;SDS011;14307;51.718;8.938;2022-10-16T11:31:00;19.40;;;18.30;;
26690;SDS011;14307;51.718;8.938;2022-10-16T11:33:41;19.05;;;18.17;;
26690;SDS011;14307;51.718;8.938;2022-10-16T11:36:13;18.00;;;17.20;;
26690;SDS011;14307;51.718;8.938;2022-10-16T11:44:33;19.25;;;18.35;;
26690;SDS011;14307;51.718;8.938;2022-10-16T11:47:31;19.05;;;17.95;;
26690;SDS011;14307;51.718;8.938;2022-10-16T11:50:39;18.30;;;17.50;;
26690;SDS011;14307;51.718;8.938;2022-10-16T11:56:08;19.02;;;17.85;;
26690;SDS011;14307;51.718;8.938;2022-10-16T11:58:52;18.83;;;17.73;;
26690;SDS011;14307;51.718;8.938;2022-10-16T12:01:33;18.48;;;17.48;;
26690;SDS011;14307;51.718;8.938;2022-10-16T12:06:44;18.08;;;17.25;;
26690;SDS011;14307;51.718;8.938;2022-10-16T12:09:30;17.67;;;16.67;;
26690;SDS011;14307;51.718;8.938;2022-10-16T12:11:59;17.88;;;16.98;;
26690;SDS011;14307;51.718;8.938;2022-10-16T12:16:59;17.50;;;16.55;;
26690;SDS011;14307;51.718;8.938;2022-10-16T12:19:28;18.73;;;17.67;;
26690;SDS011;14307;51.718;8.938;2022-10-16T12:21:56;18.50;;;17.45;;
26690;SDS011;14307;51.718;8.938;2022-10-16T12:24:35;18.60;;;17.67;;
26690;SDS011;14307;51.718;8.938;2022-10-16T12:27:05;19.13;;;18.02;;
26690;SDS011;14307;51.718;8.938;2022-10-16T12:29:46;18.35;;;17.40;;
26690;SDS011;14307;51.718;8.938;2022-10-16T12:32:47;18.88;;;17.90;;
26690;SDS011;14307;51.718;8.938;2022-10-16T12:35:21;19.52;;;18.40;;
26690;SDS011;14307;51.718;8.938;2022-10-16T12:37:51;18.27;;;16.98;;
26690;SDS011;14307;51.718;8.938;2022-10-16T12:40:28;18.48;;;17.38;;
26690;SDS011;14307;51.718;8.938;2022-10-16T12:42:57;19.10;;;18.10;;
26690;SDS011;14307;51.718;8.938;2022-10-16T12:45:28;18.88;;;17.88;;
26690;SDS011;14307;51.718;8.938;2022-10-16T12:47:57;18.88;;;17.92;;
26690;SDS011;14307;51.718;8.938;2022-10-16T12:50:36;20.15;;;18.95;;
26690;SDS011;14307;51.718;8.938;2022-10-16T12:56:05;18.92;;;18.02;;
26690;SDS011;14307;51.718;8.938;2022-10-16T13:04:31;19.00;;;17.80;;
26690;SDS011;14307;51.718;8.938;2022-10-16T13:12:37;18.92;;;17.92;;
26690;SDS011;14307;51.718;8.938;2022-10-16T13:15:37;18.80;;;17.80;;
26690;SDS011;14307;51.718;8.938;2022-10-16T13:23:34;18.52;;;17.55;;
26690;SDS011;14307;51.718;8.938;2022-10-16T13:28:36;18.90;;;17.80;;
26690;SDS011;14307;51.718;8.938;2022-10-16T13:31:04;18.92;;;17.92;;
26690;SDS011;14307;51.718;8.938;2022-10-16T13:33:41;18.67;;;17.58;;
26690;SDS011;14307;51.718;8.938;2022-10-16T13:36:19;20.63;;;19.52;;
26690;SDS011;14307;51.718;8.938;2022-10-16T13:38:46;17.95;;;16.85;;
26690;SDS011;14307;51.718;8.938;2022-10-16T13:41:14;18.02;;;17.00;;
26690;SDS011;14307;51.718;8.938;2022-10-16T13:43:50;18.73;;;17.63;;
26690;SDS011;14307;51.718;8.938;2022-10-16T13:46:20;19.27;;;18.23;;
26690;SDS011;14307;51.718;8.938;2022-10-16T13:49:01;18.10;;;17.20;;
26690;SDS011;14307;51.718;8.938;2022-10-16T13:51:37;18.08;;;17.23;;
26690;SDS011;14307;51.718;8.938;2022-10-16T13:54:04;17.70;;;16.80;;
26690;SDS011;14307;51.718;8.938;2022-10-16T13:56:32;18.17;;;17.23;;
26690;SDS011;14307;51.718;8.938;2022-10-16T13:59:00;18.23;;;17.13;;
26690;SDS011;14307;51.718;8.938;2022-10-16T14:01:34;18.25;;;17.25;;
26690;SDS011;14307;51.718;8.938;2022-10-16T14:04:10;17.35;;;16.55;;
26690;SDS011;14307;51.718;8.938;2022-10-16T14:06:43;17.13;;;16.25;;
26690;SDS011;14307;51.718;8.938;2022-10-16T14:09:25;16.70;;;15.85;;
26690;SDS011;14307;51.718;8.938;2022-10-16T14:11:55;17.83;;;16.83;;
26690;SDS011;14307;51.718;8.938;2022-10-16T14:14:50;17.50;;;16.60;;
26690;SDS011;14307;51.718;8.938;2022-10-16T14:17:30;17.38;;;16.45;;
26690;SDS011;14307;51.718;8.938;2022-10-16T14:20:01;17.20;;;16.40;;
26690;SDS011;14307;51.718;8.938;2022-10-16T14:22:36;17.17;;;16.27;;
26690;SDS011;14307;51.718;8.938;2022-10-16T14:27:56;17.27;;;16.40;;
26690;SDS011;14307;51.718;8.938;2022-10-16T14:30:35;17.05;;;16.25;;
26690;SDS011;14307;51.718;8.938;2022-10-16T14:33:03;17.73;;;16.77;;
26690;SDS011;14307;51.718;8.938;2022-10-16T14:35:33;17.02;;;16.20;;
26690;SDS011;14307;51.718;8.938;2022-10-16T14:38:02;17.02;;;16.13;;
26690;SDS011;14307;51.718;8.938;2022-10-16T14:40:31;17.17;;;16.25;;
26690;SDS011;14307;51.718;8.938;2022-10-16T14:43:03;18.25;;;17.13;;
26690;SDS011;14307;51.718;8.938;2022-10-16T14:45:32;22.58;;;20.73;;
26690;SDS011;14307;51.718;8.938;2022-10-16T14:48:02;20.45;;;19.13;;
26690;SDS011;14307;51.718;8.938;2022-10-16T14:50:45;18.92;;;17.85;;
26690;SDS011;14307;51.718;8.938;2022-10-16T14:53:12;19.48;;;18.42;;
26690;SDS011;14307;51.718;8.938;2022-10-16T14:55:39;19.95;;;18.75;;
26690;SDS011;14307;51.718;8.938;2022-10-16T14:58:15;20.48;;;19.48;;
26690;SDS011;14307;51.718;8.938;2022-10-16T15:00:45;19.75;;;18.85;;
26690;SDS011;14307;51.718;8.938;2022-10-16T15:03:12;20.25;;;19.15;;
26690;SDS011;14307;51.718;8.938;2022-10-16T15:05:39;20.42;;;19.27;;
26690;SDS011;14307;51.718;8.938;2022-10-16T15:08:06;19.15;;;17.40;;
26690;SDS011;14307;51.718;8.938;2022-10-16T15:10:35;18.10;;;17.20;;
26690;SDS011;14307;51.718;8.938;2022-10-16T15:13:05;19.13;;;18.02;;
26690;SDS011;14307;51.718;8.938;2022-10-16T15:15:33;18.90;;;17.70;;
26690;SDS011;14307;51.718;8.938;2022-10-16T15:18:03;19.90;;;18.80;;
26690;SDS011;14307;51.718;8.938;2022-10-16T15:20:31;20.02;;;18.85;;
26690;SDS011;14307;51.718;8.938;2022-10-16T15:23:04;20.58;;;19.52;;
26690;SDS011;14307;51.718;8.938;2022-10-16T15:25:37;21.05;;;19.95;;
26690;SDS011;14307;51.718;8.938;2022-10-16T15:28:08;19.85;;;18.50;;
26690;SDS011;14307;51.718;8.938;2022-10-16T15:30:36;20.60;;;18.98;;
26690;SDS011;14307;51.718;8.938;2022-10-16T15:33:04;20.77;;;19.35;;
26690;SDS011;14307;51.718;8.938;2022-10-16T15:35:35;21.98;;;20.60;;
26690;SDS011;14307;51.718;8.938;2022-10-16T15:38:02;18.92;;;18.02;;
26690;SDS011;14307;51.718;8.938;2022-10-16T15:40:29;19.40;;;18.50;;
26690;SDS011;14307;51.718;8.938;2022-10-16T15:42:56;20.67;;;19.38;;
26690;SDS011;14307;51.718;8.938;2022-10-16T15:45:23;21.95;;;20.55;;
26690;SDS011;14307;51.718;8.938;2022-10-16T15:47:50;21.90;;;20.70;;
26690;SDS011;14307;51.718;8.938;2022-10-16T15:50:16;21.60;;;20.40;;
26690;SDS011;14307;51.718;8.938;2022-10-16T15:52:43;21.23;;;20.23;;
26690;SDS011;14307;51.718;8.938;2022-10-16T15:55:11;21.45;;;20.45;;
26690;SDS011;14307;51.718;8.938;2022-10-16T15:57:39;22.17;;;21.00;;
26690;SDS011;14307;51.718;8.938;2022-10-16T16:00:10;21.95;;;20.85;;
26690;SDS011;14307;51.718;8.938;2022-10-16T16:02:41;21.45;;;20.35;;
26690;SDS011;14307;51.718;8.938;2022-10-16T16:05:09;19.20;;;18.05;;
26690;SDS011;14307;51.718;8.938;2022-10-16T16:07:38;18.58;;;17.58;;
26690;SDS011;14307;51.718;8.938;2022-10-16T16:10:07;19.30;;;18.08;;
26690;SDS011;14307;51.718;8.938;2022-10-16T16:12:35;17.98;;;16.67;;
26690;SDS011;14307;51.718;8.938;2022-10-16T16:15:06;18.15;;;16.85;;
26690;SDS011;14307;51.718;8.938;2022-10-16T16:17:34;16.48;;;15.38;;
26690;SDS011;14307;51.718;8.938;2022-10-16T16:20:01;16.13;;;15.10;;
26690;SDS011;14307;51.718;8.938;2022-10-16T16:22:29;15.90;;;14.52;;
26690;SDS011;14307;51.718;8.938;2022-10-16T16:24:57;15.68;;;14.77;;
26690;SDS011;14307;51.718;8.938;2022-10-16T16:27:23;15.98;;;15.00;;
26690;SDS011;14307;51.718;8.938;2022-10-16T16:29:52;17.38;;;15.63;;
26690;SDS011;14307;51.718;8.938;2022-10-16T16:32:19;17.40;;;16.40;;
26690;SDS011;14307;51.718;8.938;2022-10-16T16:34:46;16.88;;;15.75;;
26690;SDS011;14307;51.718;8.938;2022-10-16T16:37:13;17.50;;;16.42;;
26690;SDS011;14307;51.718;8.938;2022-10-16T16:39:40;18.10;;;16.77;;
26690;SDS011;14307;51.718;8.938;2022-10-16T16:42:06;17.60;;;16.45;;
26690;SDS011;14307;51.718;8.938;2022-10-16T16:44:33;17.40;;;16.40;;
26690;SDS011;14307;51.718;8.938;2022-10-16T16:47:03;19.50;;;17.80;;
26690;SDS011;14307;51.718;8.938;2022-10-16T16:49:30;19.23;;;18.05;;
26690;SDS011;14307;51.718;8.938;2022-10-16T16:51:58;19.83;;;18.50;;
26690;SDS011;14307;51.718;8.938;2022-10-16T16:54:24;19.73;;;18.63;;